createdAt,value
2018-07-01T00:00:50.702Z,43.20
2018-07-01T00:03:19.454Z,43.40
2018-07-01T00:05:49.188Z,43.40
2018-07-01T00:08:17.582Z,43.40
2018-07-01T00:10:46.127Z,43.50
2018-07-01T00:13:14.552Z,43.60
2018-07-01T00:25:39.993Z,43.60
2018-07-01T00:28:08.631Z,43.50
2018-07-01T00:30:37.577Z,43.60
2018-07-01T00:33:06.165Z,43.60
2018-07-01T00:35:36.165Z,43.70
2018-07-01T00:38:04.797Z,43.70
2018-07-01T00:40:33.508Z,43.70
2018-07-01T00:43:02.545Z,43.80
2018-07-01T00:45:31.223Z,43.90
2018-07-01T00:48:00.741Z,43.80
2018-07-01T00:50:30.618Z,43.90
2018-07-01T00:53:02.930Z,44.00
2018-07-01T00:55:32.145Z,43.90
2018-07-01T00:58:01.058Z,44.00
2018-07-01T01:00:31.441Z,44.00
2018-07-01T01:11:47.692Z,44.20
2018-07-01T01:14:17.012Z,44.40
2018-07-01T01:16:46.551Z,44.30
2018-07-01T01:19:16.800Z,44.30
2018-07-01T01:21:45.273Z,44.40
2018-07-01T01:27:09.284Z,44.50
2018-07-01T01:29:37.744Z,44.50
2018-07-01T01:32:07.530Z,44.50
2018-07-01T01:34:37.647Z,44.40
2018-07-01T01:37:06.531Z,44.50
2018-07-01T01:39:37.695Z,44.50
2018-07-01T01:42:19.716Z,44.60
2018-07-01T01:44:51.769Z,44.60
2018-07-01T01:47:31.310Z,44.70
2018-07-01T01:50:14.013Z,44.70
2018-07-01T01:52:46.880Z,44.70
2018-07-01T01:55:33.851Z,44.70
2018-07-01T01:58:07.086Z,44.80
2018-07-01T02:00:41.509Z,44.90
2018-07-01T02:09:02.846Z,45.00
2018-07-01T02:11:33.281Z,45.00
2018-07-01T02:19:49.971Z,45.10
2018-07-01T02:22:22.684Z,45.10
2018-07-01T02:24:52.499Z,45.10
2018-07-01T02:27:21.047Z,45.20
2018-07-01T02:29:49.515Z,45.20
2018-07-01T02:32:18.382Z,45.30
2018-07-01T02:34:46.843Z,45.30
2018-07-01T02:37:21.778Z,45.20
2018-07-01T02:39:50.372Z,45.30
2018-07-01T02:42:19.245Z,45.30
2018-07-01T02:47:57.293Z,45.40
2018-07-01T02:50:25.988Z,45.40
2018-07-01T02:52:54.411Z,45.50
2018-07-01T02:55:22.843Z,45.50
2018-07-01T02:57:51.585Z,45.50
2018-07-01T03:00:20.080Z,45.50
2018-07-01T03:03:13.674Z,45.50
2018-07-01T03:05:42.290Z,45.60
2018-07-01T03:08:10.948Z,45.60
2018-07-01T03:10:41.716Z,45.70
2018-07-01T03:13:10.374Z,45.70
2018-07-01T03:15:39.087Z,45.70
2018-07-01T03:18:07.565Z,45.70
2018-07-01T03:20:36.106Z,45.80
2018-07-01T03:23:04.559Z,45.80
2018-07-01T03:25:33.022Z,45.90
2018-07-01T03:28:02.545Z,45.90
2018-07-01T03:39:12.178Z,46.00
2018-07-01T03:41:45.650Z,46.10
2018-07-01T03:44:15.103Z,46.10
2018-07-01T03:46:43.808Z,46.10
2018-07-01T03:49:12.293Z,46.20
2018-07-01T03:51:40.769Z,46.10
2018-07-01T03:54:09.247Z,46.20
2018-07-01T03:56:37.777Z,46.30
2018-07-01T03:59:06.465Z,46.30
2018-07-01T04:01:37.160Z,46.30
2018-07-01T04:04:05.973Z,46.30
2018-07-01T04:06:34.521Z,46.40
2018-07-01T04:09:03.103Z,46.30
2018-07-01T04:11:31.591Z,46.40
2018-07-01T04:14:00.079Z,46.40
2018-07-01T04:28:00.205Z,46.60
2018-07-01T04:30:28.983Z,46.50
2018-07-01T04:32:57.513Z,46.60
2018-07-01T04:35:26.033Z,46.60
2018-07-01T04:37:55.654Z,46.70
2018-07-01T04:40:28.675Z,46.70
2018-07-01T04:43:00.596Z,46.70
2018-07-01T04:45:29.257Z,46.80
2018-07-01T05:05:05.595Z,47.10
2018-07-01T05:07:37.368Z,47.10
2018-07-01T05:10:06.620Z,47.00
2018-07-01T05:12:35.151Z,47.10
2018-07-01T05:15:03.826Z,46.90
2018-07-01T05:17:32.507Z,47.00
2018-07-01T05:20:00.969Z,46.80
2018-07-01T05:22:29.566Z,46.90
2018-07-01T05:25:01.413Z,46.90
2018-07-01T05:27:29.933Z,47.00
2018-07-01T05:29:58.396Z,47.00
2018-07-01T05:32:27.019Z,47.00
2018-07-01T05:34:55.466Z,47.00
2018-07-01T05:54:36.655Z,46.90
2018-07-01T05:57:07.439Z,46.80
2018-07-01T05:59:37.680Z,46.90
2018-07-01T06:02:06.932Z,46.90
2018-07-01T06:04:36.368Z,46.80
2018-07-01T06:07:04.869Z,46.90
2018-07-01T06:26:39.064Z,46.60
2018-07-01T06:29:07.577Z,46.70
2018-07-01T06:31:36.631Z,46.50
2018-07-01T06:34:05.304Z,46.60
2018-07-01T06:36:33.856Z,46.80
2018-07-01T06:39:03.940Z,46.60
2018-07-01T06:41:32.541Z,46.60
2018-07-01T06:44:01.090Z,46.70
2018-07-01T06:46:32.047Z,46.60
2018-07-01T06:49:00.485Z,46.50
2018-07-01T06:51:29.188Z,46.30
2018-07-01T06:53:57.860Z,46.10
2018-07-01T07:13:34.128Z,46.00
2018-07-01T07:16:02.622Z,46.00
2018-07-01T07:44:17.932Z,45.50
2018-07-01T07:46:46.548Z,45.60
2018-07-01T07:49:15.243Z,45.50
2018-07-01T08:08:46.321Z,44.70
2018-07-01T08:11:16.322Z,44.50
2018-07-01T08:13:44.780Z,44.30
2018-07-01T08:16:13.265Z,44.60
2018-07-01T08:18:42.994Z,44.40
2018-07-01T08:21:11.347Z,44.30
2018-07-01T08:23:39.813Z,44.10
2018-07-01T08:26:08.250Z,44.00
2018-07-01T08:28:36.819Z,44.20
2018-07-01T08:31:06.029Z,44.20
2018-07-01T08:33:35.112Z,44.00
2018-07-01T08:36:03.660Z,44.10
2018-07-01T08:38:32.338Z,44.10
2018-07-01T08:46:41.733Z,43.40
2018-07-01T08:57:56.877Z,43.00
2018-07-01T09:00:32.874Z,43.20
2018-07-01T09:03:01.546Z,43.00
2018-07-01T09:22:33.742Z,42.80
2018-07-01T09:25:04.380Z,42.80
2018-07-01T09:27:33.045Z,42.50
2018-07-01T09:30:02.756Z,42.50
2018-07-01T09:32:32.203Z,42.30
2018-07-01T09:35:00.901Z,42.60
2018-07-01T09:37:29.676Z,42.60
2018-07-01T09:39:58.483Z,42.40
2018-07-01T09:42:27.216Z,42.20
2018-07-01T09:44:57.057Z,42.40
2018-07-01T10:04:39.301Z,42.10
2018-07-01T10:07:07.958Z,41.70
2018-07-01T10:09:36.606Z,41.50
2018-07-01T10:12:05.511Z,41.50
2018-07-01T10:14:35.317Z,41.40
2018-07-01T10:17:03.901Z,41.30
2018-07-01T10:19:32.431Z,41.20
2018-07-01T10:39:03.464Z,40.80
2018-07-01T10:41:32.230Z,40.80
2018-07-01T10:44:02.692Z,40.60
2018-07-01T10:46:31.563Z,40.60
2018-07-01T10:49:00.222Z,40.20
2018-07-01T10:51:29.112Z,40.40
2018-07-01T10:53:57.695Z,40.10
2018-07-01T11:06:11.657Z,40.20
2018-07-01T11:25:44.508Z,39.50
2018-07-01T11:28:13.149Z,39.30
2018-07-01T11:30:41.775Z,39.00
2018-07-01T11:33:10.539Z,39.10
2018-07-01T11:35:39.923Z,38.80
2018-07-01T11:38:08.659Z,38.70
2018-07-01T11:40:37.515Z,38.80
2018-07-01T11:57:18.734Z,38.70
2018-07-01T11:59:47.513Z,38.80
2018-07-01T12:02:16.248Z,38.40
2018-07-01T12:05:02.950Z,38.30
2018-07-01T12:07:15.272Z,38.70
2018-07-01T12:09:43.917Z,38.40
2018-07-01T12:12:12.667Z,38.40
2018-07-01T12:14:50.776Z,38.30
2018-07-01T12:17:25.144Z,37.90
2018-07-01T12:19:53.881Z,38.10
2018-07-01T12:22:25.861Z,38.30
2018-07-01T12:24:54.623Z,38.20
2018-07-01T12:27:24.155Z,37.80
2018-07-01T12:29:52.682Z,37.90
2018-07-01T12:32:21.504Z,38.00
2018-07-01T12:34:50.163Z,37.90
2018-07-01T12:37:20.897Z,37.80
2018-07-01T12:39:55.492Z,37.20
2018-07-01T12:42:25.771Z,37.20
2018-07-01T12:44:54.267Z,37.70
2018-07-01T13:04:40.725Z,37.00
2018-07-01T13:13:53.441Z,36.50
2018-07-01T13:16:38.183Z,36.40
2018-07-01T13:19:08.132Z,36.60
2018-07-01T13:21:40.026Z,36.50
2018-07-01T13:24:08.725Z,36.50
2018-07-01T13:26:37.362Z,36.20
2018-07-01T13:29:07.409Z,36.20
2018-07-01T13:31:36.170Z,36.00
2018-07-01T13:34:04.832Z,36.00
2018-07-01T13:36:34.056Z,36.00
2018-07-01T13:39:04.620Z,36.10
2018-07-01T13:41:33.575Z,36.10
2018-07-01T13:44:02.385Z,36.10
2018-07-01T13:46:30.931Z,36.20
2018-07-01T13:48:59.677Z,36.00
2018-07-01T13:51:28.414Z,36.10
2018-07-01T13:53:57.355Z,36.00
2018-07-01T13:56:26.843Z,35.10
2018-07-01T13:58:55.790Z,35.60
2018-07-01T14:01:24.440Z,35.40
2018-07-01T14:03:56.779Z,35.00
2018-07-01T14:06:27.026Z,35.20
2018-07-01T14:08:57.175Z,35.00
2018-07-01T14:11:26.252Z,34.70
2018-07-01T14:13:55.021Z,34.60
2018-07-01T14:16:23.690Z,34.70
2018-07-01T14:18:52.379Z,34.50
2018-07-01T14:21:21.282Z,34.80
2018-07-01T14:23:49.947Z,34.40
2018-07-01T14:26:19.088Z,34.20
2018-07-01T14:28:48.358Z,34.70
2018-07-01T14:31:18.954Z,34.20
2018-07-01T14:47:59.520Z,33.90
2018-07-01T14:50:28.203Z,34.00
2018-07-01T14:52:56.804Z,34.40
2018-07-01T14:55:25.482Z,34.50
2018-07-01T14:57:54.037Z,34.80
2018-07-01T15:00:22.634Z,34.60
2018-07-01T15:02:53.142Z,34.10
2018-07-01T15:05:22.339Z,34.00
2018-07-01T15:07:51.232Z,34.00
2018-07-01T15:10:25.853Z,33.70
2018-07-01T15:39:05.606Z,33.10
2018-07-01T15:41:39.114Z,32.80
2018-07-01T15:44:08.376Z,33.10
2018-07-01T15:46:38.656Z,33.20
2018-07-01T15:49:07.821Z,32.70
2018-07-01T16:08:41.867Z,32.60
2018-07-01T16:11:12.186Z,32.80
2018-07-01T16:13:40.956Z,32.50
2018-07-01T16:36:53.281Z,31.70
2018-07-01T17:00:00.790Z,30.60
2018-07-01T17:02:30.632Z,30.60
2018-07-01T17:10:43.684Z,30.60
2018-07-01T17:13:12.364Z,30.70
2018-07-01T17:30:15.527Z,31.90
2018-07-01T17:32:50.905Z,32.30
2018-07-01T17:35:20.761Z,32.50
2018-07-01T17:37:49.201Z,32.60
2018-07-01T17:40:17.737Z,32.60
2018-07-01T18:02:52.815Z,33.50
2018-07-01T18:05:26.377Z,33.80
2018-07-01T18:25:14.758Z,34.40
2018-07-01T18:33:40.984Z,34.80
2018-07-01T18:36:09.512Z,34.80
2018-07-01T18:38:42.010Z,34.80
2018-07-01T18:41:12.381Z,34.90
2018-07-01T18:43:41.806Z,35.00
2018-07-01T19:03:15.487Z,35.60
2018-07-01T19:05:44.229Z,35.70
2018-07-01T19:25:17.557Z,36.20
2018-07-01T19:27:46.656Z,36.20
2018-07-01T19:30:16.352Z,37.00
2018-07-01T19:32:45.032Z,36.40
2018-07-01T19:52:31.587Z,36.70
2018-07-01T20:12:11.088Z,37.30
2018-07-01T20:24:14.252Z,37.20
2018-07-01T20:49:35.828Z,37.50
2018-07-01T20:52:04.424Z,37.50
2018-07-01T20:54:32.872Z,37.40
2018-07-01T20:57:08.992Z,37.40
2018-07-01T20:59:37.592Z,37.40
2018-07-01T21:02:06.453Z,37.40
2018-07-01T21:04:34.949Z,37.40
2018-07-01T21:07:03.499Z,37.50
2018-07-01T21:09:32.177Z,37.50
2018-07-01T21:20:54.307Z,37.60
2018-07-01T21:40:50.119Z,37.60
2018-07-01T21:43:18.599Z,37.70
2018-07-01T21:45:47.152Z,37.70
2018-07-01T21:56:49.627Z,37.90
2018-07-01T21:59:21.620Z,37.80
2018-07-01T22:01:54.018Z,37.80
2018-07-01T22:04:22.848Z,37.90
2018-07-01T22:06:56.556Z,37.90
2018-07-01T22:09:25.299Z,37.90
2018-07-01T22:12:07.927Z,37.90
2018-07-01T22:14:48.356Z,37.90
2018-07-01T22:17:16.990Z,37.90
2018-07-01T22:19:45.423Z,38.00
2018-07-01T22:22:13.878Z,38.00
2018-07-01T22:24:42.400Z,38.10
2018-07-01T22:27:10.858Z,38.10
2018-07-01T22:29:39.372Z,38.10
2018-07-01T22:32:08.056Z,38.20
2018-07-01T22:34:36.595Z,38.20
2018-07-01T22:37:05.063Z,38.20
2018-07-01T22:39:33.517Z,38.30
2018-07-01T22:42:02.432Z,38.30
2018-07-01T22:44:31.343Z,38.40
2018-07-01T22:47:04.437Z,38.50
2018-07-01T22:49:33.004Z,38.40
2018-07-01T22:52:01.489Z,38.40
2018-07-01T22:54:30.202Z,38.50
2018-07-01T22:56:58.671Z,38.50
2018-07-01T22:59:27.149Z,38.50
2018-07-01T23:03:08.943Z,38.50
2018-07-01T23:05:43.732Z,38.70
2018-07-01T23:08:12.237Z,38.70
2018-07-01T23:10:41.428Z,38.70
2018-07-01T23:13:10.140Z,38.90
2018-07-01T23:15:38.643Z,38.90
2018-07-01T23:18:07.038Z,38.90
2018-07-01T23:20:35.516Z,39.00
2018-07-01T23:23:03.966Z,39.00
2018-07-01T23:25:32.467Z,39.10
2018-07-01T23:28:01.056Z,39.20
2018-07-01T23:30:29.501Z,39.20
2018-07-01T23:32:58.009Z,39.20
2018-07-01T23:35:26.623Z,39.20
2018-07-01T23:37:55.053Z,39.30
2018-07-01T23:40:23.553Z,39.40
2018-07-01T23:42:52.007Z,39.30
2018-07-01T23:56:49.626Z,39.70
2018-07-01T23:59:18.115Z,39.70
